sensor_id;sensor_type;location;lat;lon;timestamp;pressure;altitude;pressure_sealevel;temperature;humidity
7918;BME280;4004;42.624;23.386;2022-12-22T00:02:23;94358.88;;;0.02;88.64
7918;BME280;4004;42.624;23.386;2022-12-22T00:05:13;94361.03;;;0.00;89.20
7918;BME280;4004;42.624;23.386;2022-12-22T00:07:57;94357.41;;;-0.09;89.40
7918;BME280;4004;42.624;23.386;2022-12-22T00:10:42;94353.91;;;-0.05;88.22
7918;BME280;4004;42.624;23.386;2022-12-22T00:13:27;94352.69;;;-0.12;88.14
7918;BME280;4004;42.624;23.386;2022-12-22T00:16:12;94345.22;;;-0.05;87.78
7918;BME280;4004;42.624;23.386;2022-12-22T00:18:56;94342.88;;;-0.07;87.03
7918;BME280;4004;42.624;23.386;2022-12-22T00:21:40;94342.72;;;-0.15;87.53
7918;BME280;4004;42.624;23.386;2022-12-22T00:24:24;94360.47;;;-0.21;87.63
7918;BME280;4004;42.624;23.386;2022-12-22T00:27:13;94348.59;;;-0.24;88.04
7918;BME280;4004;42.624;23.386;2022-12-22T00:29:59;94347.00;;;-0.25;87.47
7918;BME280;4004;42.624;23.386;2022-12-22T00:32:45;94352.81;;;-0.23;87.09
7918;BME280;4004;42.624;23.386;2022-12-22T00:35:29;94355.94;;;-0.21;87.09
7918;BME280;4004;42.624;23.386;2022-12-22T00:38:16;94353.63;;;-0.22;87.69
7918;BME280;4004;42.624;23.386;2022-12-22T00:41:01;94347.50;;;-0.23;88.29
7918;BME280;4004;42.624;23.386;2022-12-22T00:43:45;94349.88;;;-0.21;87.66
7918;BME280;4004;42.624;23.386;2022-12-22T00:46:31;94358.91;;;-0.22;88.09
7918;BME280;4004;42.624;23.386;2022-12-22T00:49:17;94348.78;;;-0.15;88.30
7918;BME280;4004;42.624;23.386;2022-12-22T00:52:02;94345.69;;;-0.22;88.53
7918;BME280;4004;42.624;23.386;2022-12-22T00:54:46;94347.25;;;-0.21;89.87
7918;BME280;4004;42.624;23.386;2022-12-22T00:57:30;94350.16;;;-0.23;90.17
7918;BME280;4004;42.624;23.386;2022-12-22T01:00:16;94335.91;;;-0.22;89.67
7918;BME280;4004;42.624;23.386;2022-12-22T01:03:02;94334.53;;;-0.19;88.49
7918;BME280;4004;42.624;23.386;2022-12-22T01:05:47;94340.91;;;-0.20;87.96
7918;BME280;4004;42.624;23.386;2022-12-22T01:08:32;94331.06;;;-0.14;86.83
7918;BME280;4004;42.624;23.386;2022-12-22T01:11:17;94322.09;;;-0.18;86.33
7918;BME280;4004;42.624;23.386;2022-12-22T01:14:01;94319.78;;;-0.20;85.65
7918;BME280;4004;42.624;23.386;2022-12-22T01:16:46;94314.81;;;-0.27;85.63
7918;BME280;4004;42.624;23.386;2022-12-22T01:19:31;94310.81;;;-0.24;85.61
7918;BME280;4004;42.624;23.386;2022-12-22T01:22:19;94308.69;;;-0.22;84.83
7918;BME280;4004;42.624;23.386;2022-12-22T01:25:09;94312.22;;;-0.32;85.03
7918;BME280;4004;42.624;23.386;2022-12-22T01:27:54;94307.91;;;-0.47;88.67
7918;BME280;4004;42.624;23.386;2022-12-22T01:30:38;94305.22;;;-0.42;90.72
7918;BME280;4004;42.624;23.386;2022-12-22T01:33:23;94305.28;;;-0.47;91.85
7918;BME280;4004;42.624;23.386;2022-12-22T01:36:08;94296.88;;;-0.54;91.29
7918;BME280;4004;42.624;23.386;2022-12-22T01:38:53;94300.16;;;-0.62;91.25
7918;BME280;4004;42.624;23.386;2022-12-22T01:41:37;94303.00;;;-0.58;91.17
7918;BME280;4004;42.624;23.386;2022-12-22T01:44:21;94301.25;;;-0.68;92.00
7918;BME280;4004;42.624;23.386;2022-12-22T01:47:31;94302.88;;;-0.72;92.73
7918;BME280;4004;42.624;23.386;2022-12-22T01:50:20;94301.78;;;-0.66;93.35
7918;BME280;4004;42.624;23.386;2022-12-22T01:53:10;94300.81;;;-0.75;94.77
7918;BME280;4004;42.624;23.386;2022-12-22T01:55:56;94300.56;;;-0.79;95.95
7918;BME280;4004;42.624;23.386;2022-12-22T01:58:43;94298.75;;;-0.84;98.03
7918;BME280;4004;42.624;23.386;2022-12-22T02:01:29;94292.66;;;-0.79;99.17
7918;BME280;4004;42.624;23.386;2022-12-22T02:04:14;94295.69;;;-0.96;100.00
7918;BME280;4004;42.624;23.386;2022-12-22T02:07:05;94294.50;;;-1.09;100.00
7918;BME280;4004;42.624;23.386;2022-12-22T02:10:04;94294.78;;;-1.10;100.00
7918;BME280;4004;42.624;23.386;2022-12-22T02:13:04;94293.94;;;-1.06;100.00
7918;BME280;4004;42.624;23.386;2022-12-22T02:15:58;94299.69;;;-0.98;99.62
7918;BME280;4004;42.624;23.386;2022-12-22T02:18:50;94309.13;;;-0.92;98.77
7918;BME280;4004;42.624;23.386;2022-12-22T02:21:44;94299.59;;;-0.88;98.15
7918;BME280;4004;42.624;23.386;2022-12-22T02:24:36;94302.50;;;-0.90;96.79
7918;BME280;4004;42.624;23.386;2022-12-22T02:27:24;94303.47;;;-0.80;95.95
7918;BME280;4004;42.624;23.386;2022-12-22T02:30:10;94306.59;;;-0.73;95.79
7918;BME280;4004;42.624;23.386;2022-12-22T02:32:54;94292.38;;;-0.77;94.90
7918;BME280;4004;42.624;23.386;2022-12-22T02:35:42;94304.41;;;-0.66;93.28
7918;BME280;4004;42.624;23.386;2022-12-22T02:38:37;94297.72;;;-0.58;92.51
7918;BME280;4004;42.624;23.386;2022-12-22T02:41:32;94291.41;;;-0.63;92.04
7918;BME280;4004;42.624;23.386;2022-12-22T02:44:27;94295.75;;;-0.72;92.29
7918;BME280;4004;42.624;23.386;2022-12-22T02:47:19;94298.09;;;-0.70;92.66
7918;BME280;4004;42.624;23.386;2022-12-22T02:50:12;94296.81;;;-0.73;93.11
7918;BME280;4004;42.624;23.386;2022-12-22T02:52:59;94294.97;;;-0.72;93.81
7918;BME280;4004;42.624;23.386;2022-12-22T02:55:45;94296.19;;;-0.65;95.02
7918;BME280;4004;42.624;23.386;2022-12-22T02:58:31;94292.50;;;-0.64;95.12
7918;BME280;4004;42.624;23.386;2022-12-22T03:01:18;94293.84;;;-0.66;96.35
7918;BME280;4004;42.624;23.386;2022-12-22T03:04:03;94286.94;;;-0.62;96.20
7918;BME280;4004;42.624;23.386;2022-12-22T03:06:47;94302.28;;;-0.64;95.90
7918;BME280;4004;42.624;23.386;2022-12-22T03:09:31;94294.88;;;-0.62;95.21
7918;BME280;4004;42.624;23.386;2022-12-22T03:12:15;94291.66;;;-0.59;95.54
7918;BME280;4004;42.624;23.386;2022-12-22T03:14:59;94290.56;;;-0.58;96.50
7918;BME280;4004;42.624;23.386;2022-12-22T03:17:44;94299.06;;;-0.61;96.69
7918;BME280;4004;42.624;23.386;2022-12-22T03:20:28;94295.84;;;-0.58;96.83
7918;BME280;4004;42.624;23.386;2022-12-22T03:23:12;94290.63;;;-0.63;97.37
7918;BME280;4004;42.624;23.386;2022-12-22T03:25:56;94292.44;;;-0.58;97.68
7918;BME280;4004;42.624;23.386;2022-12-22T03:28:25;94292.09;;;-0.52;97.39
7918;BME280;4004;42.624;23.386;2022-12-22T03:30:54;94292.06;;;-0.47;96.18
7918;BME280;4004;42.624;23.386;2022-12-22T03:33:23;94289.97;;;-0.50;96.83
7918;BME280;4004;42.624;23.386;2022-12-22T03:35:50;94284.13;;;-0.47;96.61
7918;BME280;4004;42.624;23.386;2022-12-22T03:38:17;94282.81;;;-0.49;96.18
7918;BME280;4004;42.624;23.386;2022-12-22T03:40:43;94288.16;;;-0.54;95.52
7918;BME280;4004;42.624;23.386;2022-12-22T03:43:11;94286.09;;;-0.57;94.62
7918;BME280;4004;42.624;23.386;2022-12-22T03:45:56;94287.47;;;-0.60;93.74
7918;BME280;4004;42.624;23.386;2022-12-22T03:48:41;94290.63;;;-0.63;92.76
7918;BME280;4004;42.624;23.386;2022-12-22T03:51:09;94291.94;;;-0.60;92.24
7918;BME280;4004;42.624;23.386;2022-12-22T03:53:36;94296.81;;;-0.73;92.95
7918;BME280;4004;42.624;23.386;2022-12-22T03:56:04;94290.28;;;-0.80;94.83
7918;BME280;4004;42.624;23.386;2022-12-22T03:58:30;94294.25;;;-0.83;95.74
7918;BME280;4004;42.624;23.386;2022-12-22T04:01:04;94294.59;;;-0.90;97.76
7918;BME280;4004;42.624;23.386;2022-12-22T04:03:31;94291.97;;;-0.90;98.26
7918;BME280;4004;42.624;23.386;2022-12-22T04:06:00;94288.53;;;-0.90;98.13
7918;BME280;4004;42.624;23.386;2022-12-22T04:08:26;94291.22;;;-0.95;98.90
7918;BME280;4004;42.624;23.386;2022-12-22T04:10:53;94290.78;;;-1.08;98.64
7918;BME280;4004;42.624;23.386;2022-12-22T04:13:37;94292.66;;;-1.08;98.96
7918;BME280;4004;42.624;23.386;2022-12-22T04:16:04;94290.00;;;-1.08;98.62
7918;BME280;4004;42.624;23.386;2022-12-22T04:18:31;94285.59;;;-1.18;98.10
7918;BME280;4004;42.624;23.386;2022-12-22T04:20:59;94287.31;;;-1.32;98.82
7918;BME280;4004;42.624;23.386;2022-12-22T04:23:26;94289.56;;;-1.15;98.94
7918;BME280;4004;42.624;23.386;2022-12-22T04:25:53;94280.63;;;-1.25;98.54
7918;BME280;4004;42.624;23.386;2022-12-22T04:28:20;94283.38;;;-1.35;100.00
7918;BME280;4004;42.624;23.386;2022-12-22T04:30:48;94282.16;;;-1.48;100.00
7918;BME280;4004;42.624;23.386;2022-12-22T04:33:15;94277.75;;;-1.62;100.00
7918;BME280;4004;42.624;23.386;2022-12-22T04:35:41;94276.13;;;-1.53;99.94
7918;BME280;4004;42.624;23.386;2022-12-22T04:38:09;94278.16;;;-1.45;99.21
7918;BME280;4004;42.624;23.386;2022-12-22T04:40:36;94283.22;;;-1.49;99.03
7918;BME280;4004;42.624;23.386;2022-12-22T04:43:03;94268.97;;;-1.48;99.24
7918;BME280;4004;42.624;23.386;2022-12-22T04:45:30;94284.00;;;-1.48;98.76
7918;BME280;4004;42.624;23.386;2022-12-22T04:47:57;94286.06;;;-1.40;99.67
7918;BME280;4004;42.624;23.386;2022-12-22T04:50:23;94288.69;;;-1.40;100.00
7918;BME280;4004;42.624;23.386;2022-12-22T04:52:50;94288.97;;;-1.41;100.00
7918;BME280;4004;42.624;23.386;2022-12-22T04:55:18;94285.44;;;-1.32;100.00
7918;BME280;4004;42.624;23.386;2022-12-22T04:57:45;94293.09;;;-1.30;100.00
7918;BME280;4004;42.624;23.386;2022-12-22T05:00:12;94283.63;;;-1.31;100.00
7918;BME280;4004;42.624;23.386;2022-12-22T05:02:39;94294.72;;;-1.34;100.00
7918;BME280;4004;42.624;23.386;2022-12-22T05:05:07;94286.22;;;-1.26;99.84
7918;BME280;4004;42.624;23.386;2022-12-22T05:07:34;94287.00;;;-1.26;99.75
7918;BME280;4004;42.624;23.386;2022-12-22T05:10:01;94283.78;;;-1.17;99.63
7918;BME280;4004;42.624;23.386;2022-12-22T05:12:29;94278.63;;;-1.33;99.12
7918;BME280;4004;42.624;23.386;2022-12-22T05:15:14;94281.78;;;-1.36;99.68
7918;BME280;4004;42.624;23.386;2022-12-22T05:17:40;94281.25;;;-1.33;100.00
7918;BME280;4004;42.624;23.386;2022-12-22T05:20:08;94286.22;;;-1.26;100.00
7918;BME280;4004;42.624;23.386;2022-12-22T05:22:35;94285.91;;;-1.25;100.00
7918;BME280;4004;42.624;23.386;2022-12-22T05:25:01;94290.59;;;-1.16;100.00
7918;BME280;4004;42.624;23.386;2022-12-22T05:27:29;94289.59;;;-1.20;100.00
7918;BME280;4004;42.624;23.386;2022-12-22T05:29:56;94289.59;;;-1.20;100.00
7918;BME280;4004;42.624;23.386;2022-12-22T05:32:23;94285.13;;;-1.20;100.00
7918;BME280;4004;42.624;23.386;2022-12-22T05:34:50;94294.84;;;-1.15;100.00
7918;BME280;4004;42.624;23.386;2022-12-22T05:37:16;94291.13;;;-1.14;100.00
7918;BME280;4004;42.624;23.386;2022-12-22T05:39:43;94293.81;;;-1.19;100.00
7918;BME280;4004;42.624;23.386;2022-12-22T05:42:10;94296.16;;;-1.18;100.00
7918;BME280;4004;42.624;23.386;2022-12-22T05:44:38;94294.84;;;-1.15;100.00
7918;BME280;4004;42.624;23.386;2022-12-22T05:47:05;94293.44;;;-1.08;100.00
7918;BME280;4004;42.624;23.386;2022-12-22T05:49:31;94299.22;;;-1.06;100.00
7918;BME280;4004;42.624;23.386;2022-12-22T05:51:58;94292.59;;;-1.03;100.00
7918;BME280;4004;42.624;23.386;2022-12-22T05:54:25;94294.41;;;-0.98;100.00
7918;BME280;4004;42.624;23.386;2022-12-22T05:56:51;94289.69;;;-1.01;100.00
7918;BME280;4004;42.624;23.386;2022-12-22T05:59:18;94286.22;;;-0.97;100.00
7918;BME280;4004;42.624;23.386;2022-12-22T06:01:46;94285.94;;;-0.95;100.00
7918;BME280;4004;42.624;23.386;2022-12-22T06:04:13;94284.63;;;-0.98;99.64
7918;BME280;4004;42.624;23.386;2022-12-22T06:06:40;94298.44;;;-1.06;98.27
7918;BME280;4004;42.624;23.386;2022-12-22T06:09:06;94300.00;;;-1.05;97.98
7918;BME280;4004;42.624;23.386;2022-12-22T06:11:33;94300.75;;;-0.99;97.46
7918;BME280;4004;42.624;23.386;2022-12-22T06:14:00;94295.34;;;-1.13;97.77
7918;BME280;4004;42.624;23.386;2022-12-22T06:16:26;94298.00;;;-1.18;98.53
7918;BME280;4004;42.624;23.386;2022-12-22T06:18:55;94293.50;;;-1.18;98.45
7918;BME280;4004;42.624;23.386;2022-12-22T06:21:21;94293.19;;;-1.11;98.62
7918;BME280;4004;42.624;23.386;2022-12-22T06:23:48;94290.94;;;-0.94;98.19
7918;BME280;4004;42.624;23.386;2022-12-22T06:26:15;94296.81;;;-0.73;97.75
7918;BME280;4004;42.624;23.386;2022-12-22T06:28:42;94279.97;;;-0.53;96.89
7918;BME280;4004;42.624;23.386;2022-12-22T06:31:08;94290.06;;;-0.12;96.32
7918;BME280;4004;42.624;23.386;2022-12-22T06:33:35;94296.81;;;0.18;94.84
7918;BME280;4004;42.624;23.386;2022-12-22T06:36:05;94301.69;;;0.49;93.25
7918;BME280;4004;42.624;23.386;2022-12-22T06:38:33;94310.72;;;0.81;91.74
7918;BME280;4004;42.624;23.386;2022-12-22T06:40:59;94299.91;;;0.96;89.17
7918;BME280;4004;42.624;23.386;2022-12-22T06:43:26;94311.28;;;1.30;86.94
7918;BME280;4004;42.624;23.386;2022-12-22T06:45:52;94307.47;;;1.63;85.89
7918;BME280;4004;42.624;23.386;2022-12-22T06:48:19;94309.94;;;2.01;83.51
7918;BME280;4004;42.624;23.386;2022-12-22T06:50:46;94312.69;;;2.46;81.97
7918;BME280;4004;42.624;23.386;2022-12-22T06:53:14;94313.00;;;2.81;79.53
7918;BME280;4004;42.624;23.386;2022-12-22T06:55:41;94315.28;;;2.97;77.44
7918;BME280;4004;42.624;23.386;2022-12-22T06:58:08;94323.44;;;3.23;76.10
7918;BME280;4004;42.624;23.386;2022-12-22T07:00:35;94320.03;;;3.53;74.89
7918;BME280;4004;42.624;23.386;2022-12-22T07:03:01;94317.00;;;3.86;71.78
7918;BME280;4004;42.624;23.386;2022-12-22T07:05:28;94318.91;;;3.86;68.72
7918;BME280;4004;42.624;23.386;2022-12-22T07:07:56;94326.53;;;4.19;66.45
7918;BME280;4004;42.624;23.386;2022-12-22T07:10:24;94318.88;;;4.26;65.61
7918;BME280;4004;42.624;23.386;2022-12-22T07:13:05;94315.00;;;4.41;64.20
7918;BME280;4004;42.624;23.386;2022-12-22T07:15:43;94322.69;;;4.02;65.76
7918;BME280;4004;42.624;23.386;2022-12-22T07:18:10;94315.19;;;3.64;67.92
7918;BME280;4004;42.624;23.386;2022-12-22T07:20:37;94318.03;;;3.68;69.46
7918;BME280;4004;42.624;23.386;2022-12-22T07:23:03;94324.03;;;3.73;68.92
7918;BME280;4004;42.624;23.386;2022-12-22T07:25:31;94317.63;;;3.83;69.55
7918;BME280;4004;42.624;23.386;2022-12-22T07:27:58;94321.00;;;4.06;69.48
7918;BME280;4004;42.624;23.386;2022-12-22T07:30:25;94330.38;;;4.04;70.25
7918;BME280;4004;42.624;23.386;2022-12-22T07:32:52;94324.97;;;4.26;69.70
7918;BME280;4004;42.624;23.386;2022-12-22T07:35:18;94329.53;;;4.34;68.07
7918;BME280;4004;42.624;23.386;2022-12-22T07:37:46;94328.31;;;4.49;68.74
7918;BME280;4004;42.624;23.386;2022-12-22T07:40:13;94317.34;;;4.51;67.74
7918;BME280;4004;42.624;23.386;2022-12-22T07:42:41;94316.66;;;4.19;69.08
7918;BME280;4004;42.624;23.386;2022-12-22T07:45:10;94325.25;;;4.07;69.27
7918;BME280;4004;42.624;23.386;2022-12-22T07:47:37;94319.13;;;4.07;69.20
7918;BME280;4004;42.624;23.386;2022-12-22T07:50:05;94316.00;;;4.05;70.02
7918;BME280;4004;42.624;23.386;2022-12-22T07:52:50;94313.50;;;4.08;69.29
7918;BME280;4004;42.624;23.386;2022-12-22T07:55:17;94314.94;;;4.14;68.85
7918;BME280;4004;42.624;23.386;2022-12-22T07:57:45;94314.28;;;4.18;69.40
7918;BME280;4004;42.624;23.386;2022-12-22T08:00:14;94312.31;;;4.32;67.78
7918;BME280;4004;42.624;23.386;2022-12-22T08:02:41;94309.34;;;4.42;66.90
7918;BME280;4004;42.624;23.386;2022-12-22T08:05:09;94313.56;;;4.43;66.69
7918;BME280;4004;42.624;23.386;2022-12-22T08:07:36;94309.84;;;4.62;65.83
7918;BME280;4004;42.624;23.386;2022-12-22T08:10:03;94319.38;;;4.45;65.55
7918;BME280;4004;42.624;23.386;2022-12-22T08:12:30;94322.66;;;4.51;65.96
7918;BME280;4004;42.624;23.386;2022-12-22T08:14:58;94306.56;;;4.56;66.35
7918;BME280;4004;42.624;23.386;2022-12-22T08:17:25;94318.75;;;4.57;64.92
7918;BME280;4004;42.624;23.386;2022-12-22T08:19:53;94315.13;;;4.44;65.31
7918;BME280;4004;42.624;23.386;2022-12-22T08:22:19;94315.56;;;4.11;68.20
7918;BME280;4004;42.624;23.386;2022-12-22T08:24:48;94319.88;;;3.99;67.87
7918;BME280;4004;42.624;23.386;2022-12-22T08:27:17;94318.13;;;3.85;68.00
7918;BME280;4004;42.624;23.386;2022-12-22T08:29:47;94310.16;;;3.85;69.87
7918;BME280;4004;42.624;23.386;2022-12-22T08:32:17;94311.03;;;3.72;70.03
7918;BME280;4004;42.624;23.386;2022-12-22T08:34:43;94306.88;;;3.57;73.72
7918;BME280;4004;42.624;23.386;2022-12-22T08:37:13;94304.50;;;3.47;75.16
7918;BME280;4004;42.624;23.386;2022-12-22T08:39:41;94306.59;;;3.27;77.08
7918;BME280;4004;42.624;23.386;2022-12-22T08:42:11;94313.66;;;3.09;78.82
7918;BME280;4004;42.624;23.386;2022-12-22T08:44:39;94308.16;;;2.83;80.29
7918;BME280;4004;42.624;23.386;2022-12-22T08:47:06;94302.38;;;2.81;81.81
7918;BME280;4004;42.624;23.386;2022-12-22T08:49:34;94308.09;;;2.75;82.77
7918;BME280;4004;42.624;23.386;2022-12-22T08:52:00;94298.09;;;2.72;82.95
7918;BME280;4004;42.624;23.386;2022-12-22T08:54:27;94302.66;;;2.57;84.77
7918;BME280;4004;42.624;23.386;2022-12-22T08:56:54;94293.78;;;2.62;85.39
7918;BME280;4004;42.624;23.386;2022-12-22T08:59:22;94291.25;;;2.57;86.88
7918;BME280;4004;42.624;23.386;2022-12-22T09:01:49;94294.41;;;2.59;86.33
7918;BME280;4004;42.624;23.386;2022-12-22T09:04:17;94287.56;;;2.66;87.06
7918;BME280;4004;42.624;23.386;2022-12-22T09:06:46;94283.72;;;2.73;87.57
7918;BME280;4004;42.624;23.386;2022-12-22T09:09:14;94282.94;;;2.72;86.82
7918;BME280;4004;42.624;23.386;2022-12-22T09:11:42;94275.09;;;2.67;87.51
7918;BME280;4004;42.624;23.386;2022-12-22T09:14:10;94267.72;;;2.64;87.36
7918;BME280;4004;42.624;23.386;2022-12-22T09:16:37;94271.97;;;2.65;87.96
7918;BME280;4004;42.624;23.386;2022-12-22T09:19:04;94262.19;;;2.74;86.76
7918;BME280;4004;42.624;23.386;2022-12-22T09:21:32;94259.88;;;2.81;87.05
7918;BME280;4004;42.624;23.386;2022-12-22T09:24:00;94259.47;;;2.88;87.19
7918;BME280;4004;42.624;23.386;2022-12-22T09:26:28;94258.06;;;2.90;86.22
7918;BME280;4004;42.624;23.386;2022-12-22T09:28:55;94252.28;;;2.88;85.72
7918;BME280;4004;42.624;23.386;2022-12-22T09:31:24;94254.94;;;2.88;86.33
7918;BME280;4004;42.624;23.386;2022-12-22T09:33:51;94252.19;;;2.94;86.12
7918;BME280;4004;42.624;23.386;2022-12-22T09:36:21;94254.69;;;2.99;85.68
7918;BME280;4004;42.624;23.386;2022-12-22T09:38:48;94256.25;;;3.00;84.38
7918;BME280;4004;42.624;23.386;2022-12-22T09:41:19;94248.66;;;3.07;84.64
7918;BME280;4004;42.624;23.386;2022-12-22T09:43:47;94239.78;;;3.11;85.09
7918;BME280;4004;42.624;23.386;2022-12-22T09:46:18;94245.13;;;3.20;84.33
7918;BME280;4004;42.624;23.386;2022-12-22T09:48:45;94242.06;;;3.36;83.42
7918;BME280;4004;42.624;23.386;2022-12-22T09:51:12;94247.38;;;3.36;82.63
7918;BME280;4004;42.624;23.386;2022-12-22T09:53:41;94254.28;;;3.37;83.45
7918;BME280;4004;42.624;23.386;2022-12-22T09:56:10;94245.19;;;3.38;84.14
7918;BME280;4004;42.624;23.386;2022-12-22T09:58:40;94235.72;;;3.45;83.77
7918;BME280;4004;42.624;23.386;2022-12-22T10:01:13;94239.63;;;3.48;82.81
7918;BME280;4004;42.624;23.386;2022-12-22T10:03:49;94230.47;;;3.63;81.63
7918;BME280;4004;42.624;23.386;2022-12-22T10:06:21;94232.66;;;3.69;81.71
7918;BME280;4004;42.624;23.386;2022-12-22T10:08:52;94225.66;;;3.73;81.20
7918;BME280;4004;42.624;23.386;2022-12-22T10:11:19;94214.53;;;3.71;80.00
7918;BME280;4004;42.624;23.386;2022-12-22T10:13:47;94204.69;;;3.81;80.54
7918;BME280;4004;42.624;23.386;2022-12-22T10:16:20;94205.63;;;3.76;80.36
7918;BME280;4004;42.624;23.386;2022-12-22T10:18:56;94198.44;;;3.85;79.97
7918;BME280;4004;42.624;23.386;2022-12-22T10:21:23;94197.69;;;3.93;79.54
7918;BME280;4004;42.624;23.386;2022-12-22T10:23:51;94188.88;;;3.84;79.25
7918;BME280;4004;42.624;23.386;2022-12-22T10:26:21;94183.09;;;3.73;79.20
7918;BME280;4004;42.624;23.386;2022-12-22T10:28:53;94190.94;;;3.87;79.83
7918;BME280;4004;42.624;23.386;2022-12-22T10:31:23;94183.09;;;3.91;79.52
7918;BME280;4004;42.624;23.386;2022-12-22T10:33:52;94186.25;;;4.10;76.80
7918;BME280;4004;42.624;23.386;2022-12-22T10:36:22;94183.31;;;4.21;76.24
7918;BME280;4004;42.624;23.386;2022-12-22T10:39:08;94177.66;;;4.22;75.35
7918;BME280;4004;42.624;23.386;2022-12-22T10:41:38;94179.53;;;4.22;75.05
7918;BME280;4004;42.624;23.386;2022-12-22T10:44:09;94186.44;;;4.23;75.52
7918;BME280;4004;42.624;23.386;2022-12-22T10:46:45;94175.94;;;4.35;75.62
7918;BME280;4004;42.624;23.386;2022-12-22T10:49:19;94174.03;;;4.44;74.01
7918;BME280;4004;42.624;23.386;2022-12-22T10:51:48;94165.91;;;4.49;73.67
7918;BME280;4004;42.624;23.386;2022-12-22T10:54:38;94165.13;;;4.40;73.55
7918;BME280;4004;42.624;23.386;2022-12-22T10:57:24;94165.59;;;4.51;73.97
7918;BME280;4004;42.624;23.386;2022-12-22T10:59:54;94162.16;;;4.50;73.34
7918;BME280;4004;42.624;23.386;2022-12-22T11:02:33;94157.09;;;4.66;72.12
7918;BME280;4004;42.624;23.386;2022-12-22T11:05:04;94154.91;;;4.77;71.66
7918;BME280;4004;42.624;23.386;2022-12-22T11:07:33;94153.44;;;4.88;70.60
7918;BME280;4004;42.624;23.386;2022-12-22T11:10:01;94149.72;;;4.89;70.88
7918;BME280;4004;42.624;23.386;2022-12-22T11:12:36;94141.06;;;4.92;69.60
7918;BME280;4004;42.624;23.386;2022-12-22T11:15:15;94144.63;;;5.05;69.10
7918;BME280;4004;42.624;23.386;2022-12-22T11:17:47;94150.13;;;5.00;69.16
7918;BME280;4004;42.624;23.386;2022-12-22T11:20:34;94143.38;;;5.11;68.44
7918;BME280;4004;42.624;23.386;2022-12-22T11:23:10;94139.28;;;5.14;67.87
7918;BME280;4004;42.624;23.386;2022-12-22T11:25:47;94139.72;;;5.25;67.88
7918;BME280;4004;42.624;23.386;2022-12-22T11:28:36;94136.84;;;5.30;64.59
7918;BME280;4004;42.624;23.386;2022-12-22T11:31:16;94135.56;;;5.36;64.58
7918;BME280;4004;42.624;23.386;2022-12-22T11:33:57;94126.16;;;5.38;63.90
7918;BME280;4004;42.624;23.386;2022-12-22T11:36:39;94131.28;;;5.44;64.48
7918;BME280;4004;42.624;23.386;2022-12-22T11:39:12;94127.84;;;5.43;63.22
7918;BME280;4004;42.624;23.386;2022-12-22T11:41:55;94120.25;;;5.54;62.69
7918;BME280;4004;42.624;23.386;2022-12-22T11:44:48;94121.91;;;5.67;61.51
7918;BME280;4004;42.624;23.386;2022-12-22T11:47:26;94121.44;;;5.65;60.93
7918;BME280;4004;42.624;23.386;2022-12-22T11:50:23;94122.03;;;5.71;60.23
7918;BME280;4004;42.624;23.386;2022-12-22T11:53:00;94114.38;;;5.69;61.60
7918;BME280;4004;42.624;23.386;2022-12-22T11:55:32;94114.88;;;5.84;60.08
7918;BME280;4004;42.624;23.386;2022-12-22T11:58:20;94117.34;;;5.89;60.20
7918;BME280;4004;42.624;23.386;2022-12-22T12:00:57;94107.09;;;5.99;59.29
7918;BME280;4004;42.624;23.386;2022-12-22T12:03:50;94109.50;;;6.13;58.09
7918;BME280;4004;42.624;23.386;2022-12-22T12:06:35;94107.75;;;6.17;57.63
7918;BME280;4004;42.624;23.386;2022-12-22T12:09:20;94110.41;;;6.17;57.92
7918;BME280;4004;42.624;23.386;2022-12-22T12:11:58;94105.53;;;6.19;58.38
7918;BME280;4004;42.624;23.386;2022-12-22T12:14:33;94105.78;;;6.27;57.69
7918;BME280;4004;42.624;23.386;2022-12-22T12:17:11;94096.25;;;6.38;57.40
7918;BME280;4004;42.624;23.386;2022-12-22T12:20:02;94091.13;;;6.33;57.96
7918;BME280;4004;42.624;23.386;2022-12-22T12:22:41;94093.25;;;6.39;57.24
7918;BME280;4004;42.624;23.386;2022-12-22T12:25:21;94096.72;;;6.40;57.47
7918;BME280;4004;42.624;23.386;2022-12-22T12:27:59;94094.84;;;6.40;57.80
7918;BME280;4004;42.624;23.386;2022-12-22T12:30:32;94094.41;;;6.51;57.17
7918;BME280;4004;42.624;23.386;2022-12-22T12:33:03;94089.06;;;6.51;57.11
7918;BME280;4004;42.624;23.386;2022-12-22T12:35:47;94093.34;;;6.64;56.32
7918;BME280;4004;42.624;23.386;2022-12-22T12:38:23;94095.69;;;6.66;56.08
7918;BME280;4004;42.624;23.386;2022-12-22T12:40:56;94086.69;;;6.70;56.69
7918;BME280;4004;42.624;23.386;2022-12-22T12:43:26;94089.56;;;6.65;56.76
7918;BME280;4004;42.624;23.386;2022-12-22T12:45:53;94087.91;;;6.73;56.66
7918;BME280;4004;42.624;23.386;2022-12-22T12:48:37;94081.56;;;6.77;55.88
7918;BME280;4004;42.624;23.386;2022-12-22T12:51:44;94085.25;;;6.85;55.51
7918;BME280;4004;42.624;23.386;2022-12-22T12:54:36;94081.47;;;6.86;55.10
7918;BME280;4004;42.624;23.386;2022-12-22T12:57:22;94079.25;;;6.88;55.95
7918;BME280;4004;42.624;23.386;2022-12-22T12:59:50;94077.47;;;6.92;55.72
7918;BME280;4004;42.624;23.386;2022-12-22T13:02:38;94078.25;;;6.80;56.36
7918;BME280;4004;42.624;23.386;2022-12-22T13:08:22;94065.66;;;6.81;56.64
7918;BME280;4004;42.624;23.386;2022-12-22T13:11:31;94068.66;;;6.79;56.66
7918;BME280;4004;42.624;23.386;2022-12-22T13:13:58;94075.13;;;6.78;56.79
7918;BME280;4004;42.624;23.386;2022-12-22T13:16:28;94072.69;;;6.85;56.35
7918;BME280;4004;42.624;23.386;2022-12-22T13:18:55;94061.22;;;6.85;56.63
7918;BME280;4004;42.624;23.386;2022-12-22T13:21:27;94061.97;;;6.98;56.26
7918;BME280;4004;42.624;23.386;2022-12-22T13:24:03;94069.91;;;7.06;55.72
7918;BME280;4004;42.624;23.386;2022-12-22T13:26:34;94065.09;;;7.00;56.88
7918;BME280;4004;42.624;23.386;2022-12-22T13:29:08;94069.22;;;6.97;58.77
7918;BME280;4004;42.624;23.386;2022-12-22T13:31:41;94063.44;;;6.95;57.83
7918;BME280;4004;42.624;23.386;2022-12-22T13:34:29;94055.19;;;6.88;58.13
7918;BME280;4004;42.624;23.386;2022-12-22T13:37:00;94063.44;;;6.95;57.88
7918;BME280;4004;42.624;23.386;2022-12-22T13:39:29;94059.63;;;6.84;58.18
7918;BME280;4004;42.624;23.386;2022-12-22T13:41:56;94062.63;;;6.82;59.55
7918;BME280;4004;42.624;23.386;2022-12-22T13:44:27;94065.31;;;6.82;59.27
7918;BME280;4004;42.624;23.386;2022-12-22T13:47:01;94061.75;;;6.78;59.27
7918;BME280;4004;42.624;23.386;2022-12-22T13:49:29;94071.41;;;6.71;59.39
7918;BME280;4004;42.624;23.386;2022-12-22T13:51:58;94066.06;;;6.71;59.53
7918;BME280;4004;42.624;23.386;2022-12-22T13:54:28;94056.06;;;6.80;59.89
7918;BME280;4004;42.624;23.386;2022-12-22T13:56:59;94057.75;;;6.72;59.92
7918;BME280;4004;42.624;23.386;2022-12-22T13:59:28;94033.44;;;6.40;60.27